createdAt,value
2022-11-24T00:01:36.273Z,100.00
2022-11-24T00:04:24.271Z,100.00
2022-11-24T00:07:12.397Z,100.00
2022-11-24T00:10:00.051Z,100.00
2022-11-24T00:12:47.575Z,100.00
2022-11-24T00:15:34.983Z,100.00
2022-11-24T00:18:22.391Z,100.00
2022-11-24T00:21:10.736Z,100.00
2022-11-24T00:23:58.312Z,100.00
2022-11-24T00:26:45.608Z,100.00
2022-11-24T00:29:33.347Z,100.00
2022-11-24T00:32:20.991Z,100.00
2022-11-24T00:35:09.147Z,100.00
2022-11-24T00:37:56.593Z,100.00
2022-11-24T00:40:44.380Z,100.00
2022-11-24T00:43:32.335Z,100.00
2022-11-24T00:46:21.209Z,100.00
2022-11-24T00:49:09.167Z,100.00
2022-11-24T00:51:56.919Z,100.00
2022-11-24T00:54:44.837Z,100.00
2022-11-24T00:57:35.619Z,100.00
2022-11-24T01:00:23.234Z,100.00
2022-11-24T01:03:10.882Z,100.00
2022-11-24T01:06:18.299Z,100.00
2022-11-24T01:09:06.095Z,100.00
2022-11-24T01:12:02.505Z,100.00
2022-11-24T01:14:50.125Z,100.00
2022-11-24T01:17:37.639Z,100.00
2022-11-24T01:20:25.368Z,100.00
2022-11-24T01:23:13.014Z,100.00
2022-11-24T01:26:05.032Z,100.00
2022-11-24T01:28:57.348Z,100.00
2022-11-24T01:31:45.126Z,100.00
2022-11-24T01:34:32.889Z,100.00
2022-11-24T01:37:20.705Z,100.00
2022-11-24T01:40:09.644Z,100.00
2022-11-24T01:42:57.506Z,100.00
2022-11-24T01:45:45.833Z,100.00
2022-11-24T01:48:43.949Z,100.00
2022-11-24T01:51:37.121Z,100.00
2022-11-24T01:54:31.584Z,100.00
2022-11-24T01:57:35.655Z,100.00
2022-11-24T02:00:23.541Z,100.00
2022-11-24T02:03:20.009Z,100.00
2022-11-24T02:06:17.098Z,100.00
2022-11-24T02:09:16.700Z,100.00
2022-11-24T02:12:06.182Z,100.00
2022-11-24T02:14:56.094Z,100.00
2022-11-24T02:17:44.366Z,100.00
2022-11-24T02:20:32.463Z,100.00
2022-11-24T02:24:08.205Z,100.00
2022-11-24T02:26:56.281Z,100.00
2022-11-24T02:29:44.451Z,100.00
2022-11-24T02:32:33.522Z,99.87
2022-11-24T02:35:21.607Z,99.91
2022-11-24T02:38:13.984Z,99.97
2022-11-24T02:41:07.839Z,99.67
2022-11-24T02:43:59.580Z,99.45
2022-11-24T02:46:47.612Z,99.41
2022-11-24T02:49:35.869Z,99.86
2022-11-24T02:52:23.594Z,99.78
2022-11-24T02:55:11.572Z,99.51
2022-11-24T02:57:59.343Z,99.49
2022-11-24T03:00:47.880Z,99.59
2022-11-24T03:03:35.746Z,99.49
2022-11-24T03:06:23.524Z,99.31
2022-11-24T03:09:11.650Z,99.38
2022-11-24T03:11:59.385Z,99.63
2022-11-24T03:14:47.062Z,99.58
2022-11-24T03:17:34.560Z,99.80
2022-11-24T03:20:22.217Z,99.55
2022-11-24T03:23:10.025Z,99.42
2022-11-24T03:26:12.269Z,99.13
2022-11-24T03:28:59.696Z,99.76
2022-11-24T03:31:47.546Z,99.84
2022-11-24T03:34:35.458Z,99.35
2022-11-24T03:37:23.566Z,99.38
2022-11-24T03:40:11.798Z,99.56
2022-11-24T03:42:59.470Z,99.37
2022-11-24T03:45:49.351Z,99.41
2022-11-24T03:48:36.822Z,99.24
2022-11-24T03:51:24.536Z,99.44
2022-11-24T03:54:12.734Z,99.51
2022-11-24T03:57:00.306Z,99.38
2022-11-24T03:59:48.043Z,99.09
2022-11-24T04:02:35.530Z,99.21
2022-11-24T04:05:25.325Z,99.36
2022-11-24T04:08:14.187Z,99.72
2022-11-24T04:11:01.930Z,99.03
2022-11-24T04:13:49.893Z,99.10
2022-11-24T04:16:37.705Z,99.39
2022-11-24T04:19:25.694Z,99.30
2022-11-24T04:22:13.408Z,99.17
2022-11-24T04:25:00.804Z,99.00
2022-11-24T04:27:53.155Z,99.00
2022-11-24T04:30:44.967Z,98.74
2022-11-24T04:33:33.341Z,98.49
2022-11-24T04:36:21.327Z,98.67
2022-11-24T04:39:23.901Z,98.63
2022-11-24T04:42:14.918Z,98.37
2022-11-24T04:45:02.997Z,98.76
2022-11-24T04:47:51.171Z,98.85
2022-11-24T04:50:40.058Z,98.44
2022-11-24T04:53:28.250Z,98.10
2022-11-24T04:56:15.659Z,98.56
2022-11-24T04:59:07.999Z,98.82
2022-11-24T05:01:56.271Z,98.32
2022-11-24T05:04:44.997Z,98.16
2022-11-24T05:07:35.126Z,98.73
2022-11-24T05:10:37.889Z,98.84
2022-11-24T05:13:25.528Z,98.95
2022-11-24T05:16:13.188Z,98.69
2022-11-24T05:19:01.106Z,98.28
2022-11-24T05:21:48.713Z,98.27
2022-11-24T05:24:36.416Z,97.70
2022-11-24T05:27:24.652Z,97.55
2022-11-24T05:30:12.819Z,97.63
2022-11-24T05:33:07.363Z,97.59
2022-11-24T05:35:55.370Z,97.02
2022-11-24T05:38:42.805Z,97.17
2022-11-24T05:41:30.135Z,97.53
2022-11-24T05:44:18.156Z,97.54
2022-11-24T05:47:05.656Z,97.78
2022-11-24T05:49:53.254Z,97.91
2022-11-24T05:52:41.214Z,97.87
2022-11-24T05:55:28.968Z,97.55
2022-11-24T05:58:16.754Z,97.63
2022-11-24T06:01:07.864Z,98.18
2022-11-24T06:03:55.288Z,98.02
2022-11-24T06:06:42.982Z,98.35
2022-11-24T06:09:30.587Z,98.73
2022-11-24T06:12:18.519Z,98.59
2022-11-24T06:15:06.918Z,97.99
2022-11-24T06:17:56.145Z,97.72
2022-11-24T06:20:49.104Z,97.83
2022-11-24T06:23:51.004Z,97.66
2022-11-24T06:26:38.683Z,97.32
2022-11-24T06:29:26.111Z,96.89
2022-11-24T06:32:14.536Z,96.62
2022-11-24T06:35:02.201Z,97.08
2022-11-24T06:37:49.615Z,97.25
2022-11-24T06:40:37.319Z,97.37
2022-11-24T06:43:27.938Z,97.38
2022-11-24T06:46:15.580Z,97.52
2022-11-24T06:49:03.626Z,97.72
2022-11-24T06:51:51.589Z,97.54
2022-11-24T06:54:39.532Z,97.64
2022-11-24T06:57:31.257Z,97.71
2022-11-24T07:00:19.474Z,97.60
2022-11-24T07:03:06.906Z,97.83
2022-11-24T07:05:58.702Z,97.47
2022-11-24T07:08:47.333Z,97.57
2022-11-24T07:11:38.165Z,98.03
2022-11-24T07:14:25.993Z,97.92
2022-11-24T07:17:13.627Z,97.75
2022-11-24T07:20:01.353Z,97.51
2022-11-24T07:22:48.939Z,96.79
2022-11-24T07:25:36.413Z,97.21
2022-11-24T07:28:24.285Z,96.91
2022-11-24T07:31:19.095Z,97.35
2022-11-24T07:34:06.612Z,97.16
2022-11-24T07:36:54.063Z,96.93
2022-11-24T07:39:41.861Z,97.13
2022-11-24T07:42:29.700Z,96.98
2022-11-24T07:45:17.494Z,96.64
2022-11-24T07:48:05.615Z,96.42
2022-11-24T07:50:56.550Z,96.42
2022-11-24T07:53:45.427Z,96.04
2022-11-24T07:56:33.255Z,95.97
2022-11-24T07:59:21.151Z,96.03
2022-11-24T08:02:13.033Z,96.11
2022-11-24T08:05:01.217Z,96.23
2022-11-24T08:07:49.413Z,96.88
2022-11-24T08:10:37.036Z,97.04
2022-11-24T08:13:24.509Z,96.66
2022-11-24T08:16:15.513Z,96.69
2022-11-24T08:19:03.215Z,96.44
2022-11-24T08:21:50.950Z,96.61
2022-11-24T08:24:38.696Z,95.81
2022-11-24T08:27:26.179Z,95.87
2022-11-24T08:30:14.530Z,96.12
2022-11-24T08:33:02.282Z,95.74
2022-11-24T08:35:50.032Z,94.35
2022-11-24T08:38:38.467Z,94.15
2022-11-24T08:41:28.002Z,93.68
2022-11-24T08:44:16.054Z,94.31
2022-11-24T08:47:03.698Z,94.75
2022-11-24T08:49:51.247Z,94.34
2022-11-24T08:52:38.854Z,94.22
2022-11-24T08:55:26.566Z,94.60
2022-11-24T08:58:14.156Z,94.57
2022-11-24T09:01:19.804Z,94.65
2022-11-24T09:04:07.555Z,94.40
2022-11-24T09:06:54.975Z,94.85
2022-11-24T09:09:42.317Z,94.72
2022-11-24T09:12:29.902Z,94.76
2022-11-24T09:15:19.063Z,94.38
2022-11-24T09:18:06.455Z,93.95
2022-11-24T09:20:57.407Z,94.25
2022-11-24T09:23:50.168Z,94.20
2022-11-24T09:26:44.625Z,94.17
2022-11-24T09:29:35.801Z,94.52
2022-11-24T09:32:23.891Z,94.31
2022-11-24T09:35:11.560Z,92.80
2022-11-24T09:37:59.076Z,93.36
2022-11-24T09:40:46.961Z,93.55
2022-11-24T09:43:46.279Z,94.05
2022-11-24T09:47:14.850Z,93.17
2022-11-24T09:50:11.638Z,93.19
2022-11-24T09:53:13.501Z,92.59
2022-11-24T09:56:31.002Z,92.90
2022-11-24T09:59:23.498Z,92.82
2022-11-24T10:02:13.352Z,93.21
2022-11-24T10:05:01.277Z,92.83
2022-11-24T10:08:17.231Z,92.12
2022-11-24T10:11:21.249Z,91.88
2022-11-24T10:14:59.222Z,92.46
2022-11-24T10:18:17.426Z,92.77
2022-11-24T10:21:36.940Z,93.15
2022-11-24T10:24:50.575Z,93.53
2022-11-24T10:27:45.076Z,92.65
2022-11-24T10:30:32.794Z,92.74
2022-11-24T10:33:30.020Z,92.47
2022-11-24T10:36:48.447Z,92.92
2022-11-24T10:40:40.401Z,93.17
2022-11-24T10:43:21.917Z,93.54
2022-11-24T10:46:24.655Z,93.46
2022-11-24T10:49:25.228Z,93.41
2022-11-24T10:52:18.843Z,93.54
2022-11-24T10:55:06.849Z,93.43
2022-11-24T10:57:54.460Z,93.37
2022-11-24T11:00:42.087Z,91.78
2022-11-24T11:03:34.043Z,91.30
2022-11-24T11:06:28.687Z,91.82
2022-11-24T11:09:20.022Z,91.94
2022-11-24T11:12:42.755Z,91.86
2022-11-24T11:15:31.639Z,92.46
2022-11-24T11:18:20.988Z,92.81
2022-11-24T11:21:24.207Z,92.76
2022-11-24T11:24:18.251Z,92.47
2022-11-24T11:27:19.827Z,92.80
2022-11-24T11:36:50.097Z,93.42
2022-11-24T11:39:48.496Z,93.50
2022-11-24T11:43:03.924Z,93.99
2022-11-24T11:46:04.132Z,93.30
2022-11-24T11:48:52.752Z,93.42
2022-11-24T11:52:18.316Z,92.94
2022-11-24T11:55:50.261Z,92.82
2022-11-24T11:58:59.168Z,92.11
2022-11-24T12:02:05.338Z,91.97
2022-11-24T12:05:04.083Z,91.24
2022-11-24T12:08:27.990Z,91.78
2022-11-24T12:11:31.070Z,92.40
2022-11-24T12:14:44.810Z,92.60
2022-11-24T12:17:42.823Z,92.88
2022-11-24T12:21:02.483Z,92.93
2022-11-24T12:24:21.989Z,92.63
2022-11-24T12:28:03.686Z,92.32
2022-11-24T12:31:08.122Z,92.34
2022-11-24T12:34:17.874Z,92.30
2022-11-24T12:38:00.455Z,92.30
2022-11-24T12:41:45.573Z,92.25
2022-11-24T12:44:48.089Z,92.53
2022-11-24T12:47:57.217Z,93.36
2022-11-24T12:50:46.088Z,93.49
2022-11-24T12:53:37.414Z,93.55
2022-11-24T12:56:43.430Z,93.32
2022-11-24T12:59:45.306Z,93.39
2022-11-24T13:02:48.871Z,94.00
2022-11-24T13:05:51.965Z,94.20
2022-11-24T13:08:40.773Z,94.19
2022-11-24T13:11:40.115Z,94.37
2022-11-24T13:14:34.281Z,94.29
2022-11-24T13:17:44.653Z,94.45
2022-11-24T13:20:40.897Z,94.04
2022-11-24T13:23:29.264Z,94.12
2022-11-24T13:26:42.862Z,93.60
2022-11-24T13:29:36.289Z,94.00
2022-11-24T13:32:44.160Z,94.29
2022-11-24T13:35:31.962Z,94.43
2022-11-24T13:38:53.885Z,94.44
2022-11-24T13:41:41.552Z,94.65
2022-11-24T13:44:43.533Z,94.60
2022-11-24T13:47:45.329Z,94.45
2022-11-24T13:51:02.658Z,94.49
2022-11-24T13:53:53.666Z,94.80
2022-11-24T13:56:41.170Z,94.73
2022-11-24T13:59:35.468Z,94.72
2022-11-24T14:02:24.226Z,94.75
2022-11-24T14:05:22.726Z,94.94
2022-11-24T14:08:21.217Z,94.78
2022-11-24T14:11:15.464Z,94.89
2022-11-24T14:14:20.709Z,95.09
2022-11-24T14:17:16.933Z,95.46
2022-11-24T14:20:23.494Z,95.51
2022-11-24T14:23:11.392Z,95.75
2022-11-24T14:25:59.452Z,95.79
2022-11-24T14:28:48.034Z,95.63
2022-11-24T14:31:35.816Z,95.27
2022-11-24T14:34:26.023Z,95.70
2022-11-24T14:37:13.607Z,95.57
2022-11-24T14:40:01.215Z,95.52
2022-11-24T14:42:50.973Z,95.49
2022-11-24T14:45:39.314Z,95.35
2022-11-24T14:48:50.803Z,95.61
2022-11-24T14:51:44.361Z,95.47
2022-11-24T14:54:32.781Z,95.42
2022-11-24T14:57:30.557Z,95.66
2022-11-24T15:00:32.618Z,95.78
2022-11-24T15:03:20.481Z,95.83
2022-11-24T15:06:19.904Z,95.70
2022-11-24T15:09:34.671Z,95.85
2022-11-24T15:12:48.553Z,95.20
2022-11-24T15:15:38.550Z,95.02
2022-11-24T15:18:48.903Z,94.99
2022-11-24T15:21:37.456Z,94.70
2022-11-24T15:24:25.165Z,94.69
2022-11-24T15:27:13.088Z,94.65
2022-11-24T15:30:00.665Z,94.70
2022-11-24T15:32:55.381Z,95.17
2022-11-24T15:35:43.772Z,95.48
2022-11-24T15:38:31.677Z,95.10
2022-11-24T15:41:21.563Z,95.30
2022-11-24T15:44:10.343Z,95.42
2022-11-24T15:46:58.013Z,94.94
2022-11-24T15:49:45.442Z,95.27
2022-11-24T15:52:32.925Z,94.88
2022-11-24T15:55:22.450Z,95.27
2022-11-24T15:58:13.805Z,95.42
2022-11-24T16:01:01.511Z,95.61
2022-11-24T16:03:49.655Z,95.22
2022-11-24T16:06:37.300Z,95.11
2022-11-24T16:09:25.040Z,95.25
2022-11-24T16:12:12.613Z,95.66
2022-11-24T16:15:00.328Z,95.44
2022-11-24T16:17:48.397Z,95.60
2022-11-24T16:20:36.303Z,95.61
2022-11-24T16:23:23.871Z,95.74
2022-11-24T16:26:11.810Z,95.68
2022-11-24T16:28:59.532Z,95.46
2022-11-24T16:31:47.706Z,95.21
2022-11-24T16:34:35.582Z,95.62
2022-11-24T16:37:23.483Z,95.60
2022-11-24T16:40:11.980Z,95.47
2022-11-24T16:42:59.957Z,95.60
2022-11-24T16:46:21.353Z,95.55
2022-11-24T16:49:09.247Z,95.12
2022-11-24T16:51:56.908Z,95.13
2022-11-24T16:54:47.302Z,95.19
2022-11-24T16:57:36.914Z,95.34
2022-11-24T17:00:24.845Z,95.57
2022-11-24T17:03:12.595Z,95.76
2022-11-24T17:06:01.020Z,95.48
2022-11-24T17:08:48.712Z,95.44
2022-11-24T17:11:36.747Z,95.69
2022-11-24T17:14:24.469Z,95.64
2022-11-24T17:17:12.045Z,95.91
2022-11-24T17:20:00.025Z,95.96
2022-11-24T17:22:49.910Z,95.91
2022-11-24T17:25:37.972Z,95.86
2022-11-24T17:28:27.910Z,95.37
2022-11-24T17:31:33.304Z,95.62
2022-11-24T17:34:20.812Z,96.09
2022-11-24T17:37:08.675Z,95.76
2022-11-24T17:40:20.800Z,95.47
2022-11-24T17:43:04.511Z,95.52
2022-11-24T17:45:57.589Z,95.35
2022-11-24T17:48:47.013Z,95.53
2022-11-24T17:51:35.201Z,95.31
2022-11-24T17:57:30.329Z,95.51
2022-11-24T18:00:18.587Z,95.47
2022-11-24T18:03:06.333Z,95.17
2022-11-24T18:05:53.892Z,95.31
2022-11-24T18:08:45.713Z,95.09
2022-11-24T18:11:33.291Z,94.97
2022-11-24T18:14:21.095Z,94.88
2022-11-24T18:17:10.187Z,94.57
2022-11-24T18:19:57.908Z,94.66
2022-11-24T18:25:59.590Z,94.28
2022-11-24T18:28:47.737Z,94.82
2022-11-24T18:31:36.343Z,94.65
2022-11-24T18:34:24.847Z,94.76
2022-11-24T18:37:14.794Z,94.62
2022-11-24T18:40:02.932Z,94.36
2022-11-24T18:42:50.445Z,94.35
2022-11-24T18:45:38.740Z,94.45
2022-11-24T18:48:26.914Z,94.15
2022-11-24T18:51:14.851Z,94.16
2022-11-24T18:54:04.815Z,93.87
2022-11-24T18:56:52.331Z,93.99
2022-11-24T18:59:40.030Z,93.79
2022-11-24T19:02:27.635Z,93.83
2022-11-24T19:05:15.564Z,94.00
2022-11-24T19:08:05.642Z,94.01
2022-11-24T19:10:53.298Z,94.55
2022-11-24T19:13:41.035Z,94.40
2022-11-24T19:16:29.219Z,94.52
2022-11-24T19:19:17.540Z,94.61
2022-11-24T19:22:05.527Z,94.69
2022-11-24T19:24:55.116Z,94.96
2022-11-24T19:27:42.782Z,94.74
2022-11-24T19:30:30.384Z,94.89
2022-11-24T19:33:18.969Z,95.05
2022-11-24T19:36:11.057Z,95.51
2022-11-24T19:38:59.818Z,95.68
2022-11-24T19:41:47.450Z,95.78
2022-11-24T19:44:36.479Z,95.87
2022-11-24T19:47:24.379Z,96.18
2022-11-24T19:50:12.326Z,96.43
2022-11-24T19:53:00.132Z,96.68
2022-11-24T19:55:49.469Z,96.73
2022-11-24T19:58:38.062Z,96.88
2022-11-24T20:01:32.175Z,97.26
2022-11-24T20:04:20.584Z,97.36
2022-11-24T20:07:08.224Z,97.08
2022-11-24T20:09:59.880Z,96.90
2022-11-24T20:12:50.994Z,96.89
2022-11-24T20:15:38.760Z,97.04
2022-11-24T20:18:27.234Z,97.07
2022-11-24T20:21:21.149Z,97.06
2022-11-24T20:24:17.261Z,96.99
2022-11-24T20:27:06.341Z,97.12
2022-11-24T20:29:54.257Z,97.24
2022-11-24T20:32:41.584Z,97.37
2022-11-24T20:35:29.235Z,97.36
2022-11-24T20:38:16.754Z,96.93
2022-11-24T20:41:11.914Z,97.10
2022-11-24T20:44:05.179Z,96.90
2022-11-24T20:46:56.854Z,97.23
2022-11-24T20:49:44.720Z,97.07
2022-11-24T20:52:32.881Z,96.75
2022-11-24T20:55:20.585Z,96.82
2022-11-24T20:58:08.328Z,96.53
2022-11-24T21:01:02.971Z,96.68
2022-11-24T21:03:58.384Z,96.80
2022-11-24T21:06:46.885Z,96.82
2022-11-24T21:09:34.527Z,96.77
2022-11-24T21:12:21.978Z,97.01
2022-11-24T21:15:09.926Z,96.43
2022-11-24T21:17:57.536Z,96.39
2022-11-24T21:20:47.145Z,96.53
2022-11-24T21:23:34.660Z,96.76
2022-11-24T21:26:24.747Z,96.86
2022-11-24T21:29:14.291Z,96.83
2022-11-24T21:32:04.832Z,97.13
2022-11-24T21:34:52.584Z,97.31
2022-11-24T21:37:40.144Z,97.49
2022-11-24T21:40:28.537Z,97.62
2022-11-24T21:43:16.113Z,97.48
2022-11-24T21:46:12.682Z,97.42
2022-11-24T21:49:00.579Z,97.45
2022-11-24T21:51:55.366Z,97.46
2022-11-24T21:54:43.397Z,97.43
2022-11-24T21:57:31.462Z,97.27
2022-11-24T22:00:19.999Z,97.12
2022-11-24T22:03:08.031Z,97.02
2022-11-24T22:06:01.862Z,96.84
2022-11-24T22:08:50.127Z,96.74
2022-11-24T22:11:38.206Z,96.85
2022-11-24T22:14:27.665Z,96.99
2022-11-24T22:17:16.635Z,96.85
2022-11-24T22:20:06.721Z,96.58
2022-11-24T22:22:54.319Z,96.40
2022-11-24T22:25:41.769Z,96.54
2022-11-24T22:28:35.354Z,96.27
2022-11-24T22:31:30.395Z,96.27
2022-11-24T22:34:18.073Z,96.18
2022-11-24T22:37:05.821Z,96.05
2022-11-24T22:39:55.462Z,96.24
2022-11-24T22:42:44.213Z,96.10
2022-11-24T22:45:35.937Z,95.86
2022-11-24T22:48:35.793Z,95.80
2022-11-24T22:51:27.643Z,95.84
2022-11-24T22:54:15.927Z,96.09
2022-11-24T22:57:04.045Z,96.01
2022-11-24T22:59:51.587Z,96.31
2022-11-24T23:02:39.096Z,96.62
2022-11-24T23:05:27.063Z,96.52
2022-11-24T23:08:16.268Z,96.78
2022-11-24T23:11:08.066Z,96.73
2022-11-24T23:13:57.048Z,96.75
2022-11-24T23:16:44.849Z,96.41
2022-11-24T23:19:32.388Z,96.49
2022-11-24T23:22:19.976Z,96.11
2022-11-24T23:25:08.091Z,95.99
2022-11-24T23:27:55.773Z,95.91
2022-11-24T23:30:43.743Z,95.98
2022-11-24T23:33:32.254Z,95.84
2022-11-24T23:36:21.074Z,96.04
2022-11-24T23:39:12.336Z,95.88
2022-11-24T23:42:00.088Z,95.98
2022-11-24T23:44:47.784Z,95.82
2022-11-24T23:47:35.444Z,95.86
2022-11-24T23:50:22.862Z,95.83
2022-11-24T23:53:10.536Z,95.53
2022-11-24T23:55:58.398Z,95.71
2022-11-24T23:58:46.651Z,95.56
